createdAt,value
2023-10-16T00:04:21.570Z,1.10
2023-10-16T00:09:26.912Z,1.13
2023-10-16T00:14:32.113Z,0.95
2023-10-16T00:19:34.406Z,0.80
2023-10-16T00:24:38.459Z,0.90
2023-10-16T00:29:42.747Z,1.23
2023-10-16T00:34:45.887Z,1.05
2023-10-16T00:44:57.122Z,0.68
2023-10-16T00:50:03.775Z,0.65
2023-10-16T00:55:12.209Z,0.80
2023-10-16T01:00:15.146Z,0.77
2023-10-16T01:05:24.836Z,1.27
2023-10-16T01:10:28.294Z,1.20
2023-10-16T01:15:30.407Z,0.95
2023-10-16T01:20:32.451Z,0.98
2023-10-16T01:25:35.799Z,1.27
2023-10-16T01:44:32.997Z,1.60
2023-10-16T01:49:34.967Z,0.73
2023-10-16T01:54:39.238Z,1.25
2023-10-16T01:59:44.337Z,1.10
2023-10-16T02:04:46.525Z,0.70
2023-10-16T02:09:49.006Z,1.20
2023-10-16T02:14:52.365Z,1.33
2023-10-16T02:19:54.364Z,1.10
2023-10-16T02:31:53.792Z,1.38
2023-10-16T02:36:55.958Z,1.42
2023-10-16T02:42:00.662Z,1.15
2023-10-16T02:47:06.676Z,1.83
2023-10-16T02:52:08.723Z,1.38
2023-10-16T02:57:11.540Z,0.90
2023-10-16T03:02:24.141Z,1.15
2023-10-16T03:07:26.454Z,1.33
2023-10-16T03:12:28.640Z,0.80
2023-10-16T03:17:32.088Z,0.60
2023-10-16T03:22:34.212Z,2.28
2023-10-16T03:27:36.265Z,0.95
2023-10-16T03:32:39.674Z,0.85
2023-10-16T03:37:41.699Z,1.20
2023-10-16T03:42:45.230Z,1.02
2023-10-16T03:47:52.847Z,1.23
2023-10-16T03:52:57.857Z,0.70
2023-10-16T03:58:00.108Z,0.95
2023-10-16T04:03:08.282Z,1.20
2023-10-16T04:08:11.740Z,0.80
2023-10-16T04:13:15.565Z,0.82
2023-10-16T04:18:28.384Z,0.85
2023-10-16T04:23:46.652Z,1.20
2023-10-16T04:29:07.265Z,1.40
2023-10-16T04:34:37.008Z,1.08
2023-10-16T04:39:57.692Z,0.93
2023-10-16T04:45:18.172Z,0.60
2023-10-16T04:51:08.314Z,0.90
2023-10-16T04:56:18.130Z,1.00
2023-10-16T05:01:55.442Z,0.70
2023-10-16T05:07:07.866Z,0.60
2023-10-16T05:12:28.501Z,1.08
2023-10-16T05:17:30.542Z,0.88
2023-10-16T05:22:48.952Z,1.35
2023-10-16T05:28:09.639Z,1.25
2023-10-16T05:33:30.067Z,0.93
2023-10-16T05:38:52.300Z,1.17
2023-10-16T05:44:13.622Z,1.20
2023-10-16T05:49:34.594Z,1.05
2023-10-16T05:54:56.723Z,1.33
2023-10-16T06:00:17.771Z,1.60
2023-10-16T06:05:38.680Z,1.60
2023-10-16T06:11:02.261Z,2.15
2023-10-16T06:16:05.032Z,2.20
2023-10-16T06:21:07.319Z,1.60
2023-10-16T06:26:10.998Z,1.42
2023-10-16T06:31:14.534Z,0.98
2023-10-16T06:36:19.070Z,1.27
2023-10-16T06:41:23.544Z,1.17
2023-10-16T06:46:26.418Z,1.60
2023-10-16T06:51:32.137Z,2.10
2023-10-16T06:56:36.401Z,1.90
2023-10-16T07:01:38.854Z,1.60
2023-10-16T07:06:43.375Z,1.73
2023-10-16T07:11:46.811Z,2.33
2023-10-16T07:16:49.592Z,2.40
2023-10-16T07:21:51.686Z,2.13
2023-10-16T07:26:55.035Z,1.80
2023-10-16T07:31:57.040Z,1.58
2023-10-16T07:36:59.544Z,1.60
2023-10-16T07:42:03.571Z,1.08
2023-10-16T07:47:07.306Z,2.33
2023-10-16T07:52:09.446Z,1.73
2023-10-16T07:57:12.805Z,1.70
2023-10-16T08:02:19.217Z,1.80
2023-10-16T08:07:41.232Z,1.67
2023-10-16T08:17:47.100Z,1.63
2023-10-16T08:22:51.572Z,1.27
2023-10-16T08:27:58.477Z,1.08
2023-10-16T08:33:10.896Z,1.40
2023-10-16T08:38:15.761Z,1.50
2023-10-16T08:43:19.344Z,1.42
2023-10-16T08:48:23.120Z,1.60
2023-10-16T08:53:35.218Z,1.30
2023-10-16T08:58:45.578Z,1.60
2023-10-16T09:03:52.133Z,1.80
2023-10-16T09:08:56.141Z,2.03
2023-10-16T09:14:00.969Z,2.30
2023-10-16T09:19:07.949Z,2.20
2023-10-16T09:24:12.948Z,1.88
2023-10-16T09:29:16.402Z,1.80
2023-10-16T09:34:21.600Z,3.63
2023-10-16T09:39:31.342Z,3.08
2023-10-16T09:44:40.707Z,2.47
2023-10-16T09:49:43.603Z,2.78
2023-10-16T10:00:01.751Z,2.45
2023-10-16T10:05:10.922Z,1.33
2023-10-16T10:10:31.465Z,1.33
2023-10-16T10:15:37.333Z,1.73
2023-10-16T10:20:41.858Z,1.25
2023-10-16T10:25:46.321Z,1.40
2023-10-16T10:30:50.838Z,0.98
2023-10-16T10:36:35.570Z,1.45
2023-10-16T10:41:46.816Z,2.05
2023-10-16T10:46:54.706Z,1.27
2023-10-16T10:51:56.965Z,1.73
2023-10-16T10:57:08.691Z,1.65
2023-10-16T11:02:19.918Z,1.80
2023-10-16T11:07:29.747Z,1.00
2023-10-16T11:12:31.900Z,1.73
2023-10-16T11:17:37.057Z,1.55
2023-10-16T11:22:47.972Z,2.47
2023-10-16T11:27:54.796Z,1.83
2023-10-16T11:32:59.128Z,2.40
2023-10-16T11:38:05.407Z,2.25
2023-10-16T11:43:15.350Z,2.33
2023-10-16T11:48:24.680Z,3.25
2023-10-16T11:53:29.626Z,2.28
2023-10-16T11:58:32.441Z,3.08
2023-10-16T12:03:38.822Z,2.72
2023-10-16T12:08:45.825Z,3.20
2023-10-16T12:13:48.241Z,2.63
2023-10-16T12:18:52.949Z,2.60
2023-10-16T12:23:55.055Z,2.72
2023-10-16T12:28:58.290Z,2.05
2023-10-16T12:34:01.764Z,2.13
2023-10-16T12:39:14.416Z,1.98
2023-10-16T12:44:18.210Z,1.80
2023-10-16T12:49:24.597Z,2.28
2023-10-16T12:54:26.968Z,2.63
2023-10-16T12:59:29.421Z,2.50
2023-10-16T13:04:34.703Z,2.30
2023-10-16T13:09:37.052Z,1.90
2023-10-16T13:14:39.148Z,2.35
2023-10-16T13:19:42.501Z,2.80
2023-10-16T13:24:44.576Z,2.50
2023-10-16T13:29:46.925Z,1.52
2023-10-16T13:34:51.811Z,2.28
2023-10-16T13:39:54.042Z,1.92
2023-10-16T13:44:56.097Z,2.10
2023-10-16T13:49:59.479Z,1.48
2023-10-16T13:55:01.505Z,1.90
2023-10-16T14:00:05.070Z,1.95
2023-10-16T14:05:08.804Z,2.00
2023-10-16T14:10:14.554Z,2.53
2023-10-16T14:15:20.919Z,2.05
2023-10-16T14:20:36.935Z,2.03
2023-10-16T14:25:59.006Z,2.40
2023-10-16T14:31:02.863Z,2.10
2023-10-16T14:36:08.501Z,2.08
2023-10-16T14:41:16.591Z,2.85
2023-10-16T14:46:18.851Z,1.98
2023-10-16T14:51:23.316Z,1.80
2023-10-16T14:56:26.347Z,2.08
2023-10-16T15:06:33.019Z,2.28
2023-10-16T15:11:36.256Z,2.42
2023-10-16T15:16:38.379Z,2.15
2023-10-16T15:21:41.984Z,2.80
2023-10-16T15:26:44.108Z,2.75
2023-10-16T15:31:47.153Z,2.83
2023-10-16T15:36:51.022Z,2.70
2023-10-16T15:41:53.265Z,2.25
2023-10-16T15:46:55.496Z,1.55
2023-10-16T15:51:59.013Z,1.98
2023-10-16T15:57:01.217Z,2.20
2023-10-16T16:02:03.328Z,2.13
2023-10-16T16:07:10.090Z,3.97
2023-10-16T16:12:15.222Z,4.43
2023-10-16T16:17:17.362Z,3.40
2023-10-16T16:22:20.867Z,3.13
2023-10-16T16:27:23.166Z,3.38
2023-10-16T16:32:26.607Z,3.05
2023-10-16T16:37:30.228Z,2.92
2023-10-16T16:42:32.248Z,2.08
2023-10-16T16:47:34.274Z,2.80
2023-10-16T16:52:37.626Z,3.30
2023-10-16T16:57:40.470Z,3.67
2023-10-16T17:02:42.751Z,4.85
2023-10-16T17:07:46.348Z,5.15
2023-10-16T17:12:48.688Z,4.47
2023-10-16T17:17:52.810Z,3.60
2023-10-16T17:23:06.055Z,2.70
2023-10-16T17:28:08.641Z,2.45
2023-10-16T17:33:11.864Z,2.17
2023-10-16T17:38:15.586Z,2.10
2023-10-16T17:43:19.919Z,1.95
2023-10-16T17:48:22.171Z,2.72
2023-10-16T17:53:26.469Z,2.10
2023-10-16T17:58:28.762Z,2.60
2023-10-16T18:03:32.824Z,2.15
2023-10-16T18:08:36.480Z,2.95
2023-10-16T18:13:41.937Z,2.10
2023-10-16T18:18:43.987Z,2.22
2023-10-16T18:23:47.418Z,2.03
2023-10-16T18:28:49.460Z,2.08
2023-10-16T18:33:53.462Z,2.05
2023-10-16T18:38:56.941Z,2.95
2023-10-16T18:43:58.953Z,3.33
2023-10-16T18:49:01.128Z,2.90
2023-10-16T18:54:05.062Z,2.92
2023-10-16T18:59:07.925Z,3.42
2023-10-16T19:04:09.920Z,3.42
2023-10-16T19:09:13.483Z,4.32
2023-10-16T19:14:15.696Z,3.78
2023-10-16T19:19:17.771Z,4.88
2023-10-16T19:24:21.283Z,4.70
2023-10-16T19:29:23.351Z,5.03
2023-10-16T19:34:25.676Z,5.75
2023-10-16T19:39:30.145Z,5.00
2023-10-16T19:44:32.241Z,4.18
2023-10-16T19:49:34.313Z,4.78
2023-10-16T19:54:39.172Z,8.60
2023-10-16T19:59:41.192Z,6.93
2023-10-16T20:04:43.293Z,11.35
2023-10-16T20:09:46.972Z,13.25
2023-10-16T20:14:50.125Z,11.35
2023-10-16T20:19:52.800Z,6.47
2023-10-16T20:24:56.429Z,3.97
2023-10-16T20:29:59.114Z,3.55
2023-10-16T20:35:01.797Z,4.10
2023-10-16T20:40:08.365Z,3.88
2023-10-16T20:45:14.450Z,4.15
2023-10-16T20:50:19.628Z,3.15
2023-10-16T20:55:23.822Z,3.40
2023-10-16T21:00:29.149Z,2.90
2023-10-16T21:05:33.822Z,3.50
2023-10-16T21:10:37.635Z,3.58
2023-10-16T21:15:42.706Z,4.30
2023-10-16T21:20:44.783Z,4.45
2023-10-16T21:25:48.192Z,3.85
2023-10-16T21:30:53.935Z,4.25
2023-10-16T21:36:02.666Z,3.53
2023-10-16T21:41:06.545Z,4.30
2023-10-16T21:46:08.659Z,3.80
2023-10-16T21:51:10.741Z,4.40
2023-10-16T21:56:14.110Z,3.25
2023-10-16T22:01:17.750Z,4.28
2023-10-16T22:06:19.993Z,4.32
2023-10-16T22:11:23.360Z,4.45
2023-10-16T22:16:27.002Z,4.00
2023-10-16T22:21:31.497Z,4.40
2023-10-16T22:26:36.364Z,3.72
2023-10-16T22:31:38.971Z,3.63
2023-10-16T22:36:41.257Z,2.95
2023-10-16T22:41:44.654Z,3.55
2023-10-16T22:46:51.097Z,3.20
2023-10-16T22:51:54.226Z,3.05
2023-10-16T22:56:57.632Z,3.33
2023-10-16T23:01:59.732Z,3.47
2023-10-16T23:07:06.798Z,3.58
2023-10-16T23:12:10.628Z,3.25
2023-10-16T23:17:19.179Z,3.65
2023-10-16T23:22:21.606Z,3.13
2023-10-16T23:27:24.993Z,3.63
2023-10-16T23:32:27.028Z,2.45
2023-10-16T23:37:35.171Z,3.85
2023-10-16T23:42:38.526Z,3.60
2023-10-16T23:47:45.832Z,2.53
2023-10-16T23:53:07.910Z,4.03
2023-10-16T23:58:14.233Z,2.80
